sensor_id;sensor_type;location;lat;lon;timestamp;pressure;altitude;pressure_sealevel;temperature
64394;BMP280;50712;49.506;10.400;2023-08-21T00:00:18;98586.19;;;27.90
64394;BMP280;50712;49.506;10.400;2023-08-21T00:00:48;98587.50;;;27.89
64394;BMP280;50712;49.506;10.400;2023-08-21T00:01:19;98590.31;;;27.89
64394;BMP280;50712;49.506;10.400;2023-08-21T00:01:49;98586.78;;;27.89
64394;BMP280;50712;49.506;10.400;2023-08-21T00:02:19;98587.31;;;27.87
64394;BMP280;50712;49.506;10.400;2023-08-21T00:02:50;98590.09;;;27.87
64394;BMP280;50712;49.506;10.400;2023-08-21T00:03:20;98591.41;;;27.86
64394;BMP280;50712;49.506;10.400;2023-08-21T00:03:51;98579.47;;;27.86
64394;BMP280;50712;49.506;10.400;2023-08-21T00:04:22;98588.41;;;27.84
64394;BMP280;50712;49.506;10.400;2023-08-21T00:04:52;98584.84;;;27.84
64394;BMP280;50712;49.506;10.400;2023-08-21T00:05:22;98585.44;;;27.82
64394;BMP280;50712;49.506;10.400;2023-08-21T00:05:53;98586.72;;;27.81
64394;BMP280;50712;49.506;10.400;2023-08-21T00:06:23;98592.34;;;27.81
64394;BMP280;50712;49.506;10.400;2023-08-21T00:06:54;98584.50;;;27.80
64394;BMP280;50712;49.506;10.400;2023-08-21T00:07:24;98590.09;;;27.80
64394;BMP280;50712;49.506;10.400;2023-08-21T00:07:54;98585.81;;;27.79
64394;BMP280;50712;49.506;10.400;2023-08-21T00:08:25;98584.28;;;27.78
64394;BMP280;50712;49.506;10.400;2023-08-21T00:08:55;98591.19;;;27.77
64394;BMP280;50712;49.506;10.400;2023-08-21T00:09:25;98587.09;;;27.78
64394;BMP280;50712;49.506;10.400;2023-08-21T00:09:55;98596.81;;;27.77
64394;BMP280;50712;49.506;10.400;2023-08-21T00:10:26;98597.38;;;27.75
64394;BMP280;50712;49.506;10.400;2023-08-21T00:10:56;98598.13;;;27.76
64394;BMP280;50712;49.506;10.400;2023-08-21T00:11:26;98597.38;;;27.75
64394;BMP280;50712;49.506;10.400;2023-08-21T00:11:57;98593.03;;;27.74
64394;BMP280;50712;49.506;10.400;2023-08-21T00:12:27;98604.84;;;27.73
64394;BMP280;50712;49.506;10.400;2023-08-21T00:12:58;98603.53;;;27.74
64394;BMP280;50712;49.506;10.400;2023-08-21T00:13:28;98602.03;;;27.73
64394;BMP280;50712;49.506;10.400;2023-08-21T00:13:59;98594.91;;;27.72
64394;BMP280;50712;49.506;10.400;2023-08-21T00:14:29;98599.75;;;27.71
64394;BMP280;50712;49.506;10.400;2023-08-21T00:14:59;98599.03;;;27.71
64394;BMP280;50712;49.506;10.400;2023-08-21T00:15:30;98599.59;;;27.69
64394;BMP280;50712;49.506;10.400;2023-08-21T00:16:00;98595.28;;;27.68
64394;BMP280;50712;49.506;10.400;2023-08-21T00:16:31;98600.16;;;27.68
64394;BMP280;50712;49.506;10.400;2023-08-21T00:17:02;98606.47;;;27.68
64394;BMP280;50712;49.506;10.400;2023-08-21T00:17:36;98598.66;;;27.67
64394;BMP280;50712;49.506;10.400;2023-08-21T00:18:07;98602.19;;;27.67
64394;BMP280;50712;49.506;10.400;2023-08-21T00:18:37;98593.06;;;27.67
64394;BMP280;50712;49.506;10.400;2023-08-21T00:19:07;98601.47;;;27.67
64394;BMP280;50712;49.506;10.400;2023-08-21T00:19:38;98597.91;;;27.66
64394;BMP280;50712;49.506;10.400;2023-08-21T00:20:08;98601.97;;;27.65
64394;BMP280;50712;49.506;10.400;2023-08-21T00:20:39;98595.66;;;27.65
64394;BMP280;50712;49.506;10.400;2023-08-21T00:21:11;98592.84;;;27.65
64394;BMP280;50712;49.506;10.400;2023-08-21T00:21:42;98596.38;;;27.65
64394;BMP280;50712;49.506;10.400;2023-08-21T00:22:12;98592.84;;;27.65
64394;BMP280;50712;49.506;10.400;2023-08-21T00:22:42;98596.22;;;27.63
64394;BMP280;50712;49.506;10.400;2023-08-21T00:23:13;98589.84;;;27.63
64394;BMP280;50712;49.506;10.400;2023-08-21T00:23:43;98586.28;;;27.62
64394;BMP280;50712;49.506;10.400;2023-08-21T00:24:13;98589.66;;;27.61
64394;BMP280;50712;49.506;10.400;2023-08-21T00:24:44;98591.72;;;27.60
64394;BMP280;50712;49.506;10.400;2023-08-21T00:25:14;98593.75;;;27.60
64394;BMP280;50712;49.506;10.400;2023-08-21T00:25:46;98590.97;;;27.60
64394;BMP280;50712;49.506;10.400;2023-08-21T00:26:17;98593.00;;;27.59
64394;BMP280;50712;49.506;10.400;2023-08-21T00:26:47;98589.47;;;27.59
64394;BMP280;50712;49.506;10.400;2023-08-21T00:27:18;98587.22;;;27.57
64394;BMP280;50712;49.506;10.400;2023-08-21T00:27:48;98597.88;;;27.59
64394;BMP280;50712;49.506;10.400;2023-08-21T00:28:19;98592.84;;;27.57
64394;BMP280;50712;49.506;10.400;2023-08-21T00:28:49;98598.44;;;27.57
64394;BMP280;50712;49.506;10.400;2023-08-21T00:29:20;98601.78;;;27.56
64394;BMP280;50712;49.506;10.400;2023-08-21T00:29:51;98592.63;;;27.55
64394;BMP280;50712;49.506;10.400;2023-08-21T00:30:21;98589.06;;;27.55
64394;BMP280;50712;49.506;10.400;2023-08-21T00:30:51;98591.88;;;27.55
64394;BMP280;50712;49.506;10.400;2023-08-21T00:31:30;98591.69;;;27.53
64394;BMP280;50712;49.506;10.400;2023-08-21T00:32:00;98603.63;;;27.53
64394;BMP280;50712;49.506;10.400;2023-08-21T00:32:31;98597.31;;;27.53
64394;BMP280;50712;49.506;10.400;2023-08-21T00:33:01;98590.19;;;27.52
64394;BMP280;50712;49.506;10.400;2023-08-21T00:33:32;98599.34;;;27.52
64394;BMP280;50712;49.506;10.400;2023-08-21T00:34:02;98601.38;;;27.52
64394;BMP280;50712;49.506;10.400;2023-08-21T00:34:32;98595.78;;;27.52
64394;BMP280;50712;49.506;10.400;2023-08-21T00:35:03;98598.59;;;27.52
64394;BMP280;50712;49.506;10.400;2023-08-21T00:35:34;98597.81;;;27.51
64394;BMP280;50712;49.506;10.400;2023-08-21T00:36:04;98597.81;;;27.51
64394;BMP280;50712;49.506;10.400;2023-08-21T00:36:34;98596.34;;;27.50
64394;BMP280;50712;49.506;10.400;2023-08-21T00:37:05;98590.72;;;27.50
64394;BMP280;50712;49.506;10.400;2023-08-21T00:37:35;98599.13;;;27.50
64394;BMP280;50712;49.506;10.400;2023-08-21T00:38:06;98598.38;;;27.50
64394;BMP280;50712;49.506;10.400;2023-08-21T00:38:36;98594.09;;;27.49
64394;BMP280;50712;49.506;10.400;2023-08-21T00:39:07;98592.78;;;27.50
64394;BMP280;50712;49.506;10.400;2023-08-21T00:39:38;98597.66;;;27.49
64394;BMP280;50712;49.506;10.400;2023-08-21T00:40:09;98594.09;;;27.49
64394;BMP280;50712;49.506;10.400;2023-08-21T00:40:39;98592.59;;;27.48
64394;BMP280;50712;49.506;10.400;2023-08-21T00:41:10;98589.81;;;27.48
64394;BMP280;50712;49.506;10.400;2023-08-21T00:41:40;98589.03;;;27.47
64394;BMP280;50712;49.506;10.400;2023-08-21T00:42:12;98589.03;;;27.47
64394;BMP280;50712;49.506;10.400;2023-08-21T00:42:42;98588.28;;;27.47
64394;BMP280;50712;49.506;10.400;2023-08-21T00:43:12;98588.84;;;27.45
64394;BMP280;50712;49.506;10.400;2023-08-21T00:43:43;98592.41;;;27.46
64394;BMP280;50712;49.506;10.400;2023-08-21T00:44:14;98600.03;;;27.45
64394;BMP280;50712;49.506;10.400;2023-08-21T00:44:45;98583.78;;;27.44
64394;BMP280;50712;49.506;10.400;2023-08-21T00:45:15;98592.94;;;27.44
64394;BMP280;50712;49.506;10.400;2023-08-21T00:45:46;98585.88;;;27.43
64394;BMP280;50712;49.506;10.400;2023-08-21T00:46:17;98585.88;;;27.43
64394;BMP280;50712;49.506;10.400;2023-08-21T00:46:48;98593.50;;;27.43
64394;BMP280;50712;49.506;10.400;2023-08-21T00:47:22;98587.16;;;27.42
64394;BMP280;50712;49.506;10.400;2023-08-21T00:47:53;98588.47;;;27.41
64394;BMP280;50712;49.506;10.400;2023-08-21T00:48:23;98585.66;;;27.41
64394;BMP280;50712;49.506;10.400;2023-08-21T00:48:54;98587.69;;;27.41
64394;BMP280;50712;49.506;10.400;2023-08-21T00:49:25;98594.06;;;27.41
64394;BMP280;50712;49.506;10.400;2023-08-21T00:49:55;98592.56;;;27.40
64394;BMP280;50712;49.506;10.400;2023-08-21T00:50:26;98586.22;;;27.40
64394;BMP280;50712;49.506;10.400;2023-08-21T00:50:56;98586.22;;;27.40
64394;BMP280;50712;49.506;10.400;2023-08-21T00:51:27;98588.25;;;27.39
64394;BMP280;50712;49.506;10.400;2023-08-21T00:51:58;98585.47;;;27.39
64394;BMP280;50712;49.506;10.400;2023-08-21T00:52:30;98591.06;;;27.39
64394;BMP280;50712;49.506;10.400;2023-08-21T00:53:00;98586.78;;;27.38
64394;BMP280;50712;49.506;10.400;2023-08-21T00:53:31;98584.69;;;27.39
64394;BMP280;50712;49.506;10.400;2023-08-21T00:54:02;98591.63;;;27.38
64394;BMP280;50712;49.506;10.400;2023-08-21T00:54:32;98593.69;;;27.37
64394;BMP280;50712;49.506;10.400;2023-08-21T00:55:03;98590.13;;;27.37
64394;BMP280;50712;49.506;10.400;2023-08-21T00:55:33;98587.31;;;27.37
64394;BMP280;50712;49.506;10.400;2023-08-21T00:56:04;98591.22;;;27.34
64394;BMP280;50712;49.506;10.400;2023-08-21T00:56:35;98594.22;;;27.36
64394;BMP280;50712;49.506;10.400;2023-08-21T00:57:05;98594.75;;;27.34
64394;BMP280;50712;49.506;10.400;2023-08-21T00:57:36;98594.03;;;27.34
64394;BMP280;50712;49.506;10.400;2023-08-21T00:58:10;98594.03;;;27.34
64394;BMP280;50712;49.506;10.400;2023-08-21T00:58:44;98596.06;;;27.33
64394;BMP280;50712;49.506;10.400;2023-08-21T00:59:14;98598.13;;;27.33
64394;BMP280;50712;49.506;10.400;2023-08-21T00:59:44;98591.75;;;27.32
64394;BMP280;50712;49.506;10.400;2023-08-21T01:00:15;98596.63;;;27.32
64394;BMP280;50712;49.506;10.400;2023-08-21T01:00:46;98594.38;;;27.30
64394;BMP280;50712;49.506;10.400;2023-08-21T01:01:19;98597.19;;;27.30
64394;BMP280;50712;49.506;10.400;2023-08-21T01:01:55;98599.22;;;27.30
64394;BMP280;50712;49.506;10.400;2023-08-21T01:02:25;98594.19;;;27.28
64394;BMP280;50712;49.506;10.400;2023-08-21T01:02:56;98591.38;;;27.28
64394;BMP280;50712;49.506;10.400;2023-08-21T01:03:26;98592.13;;;27.29
64394;BMP280;50712;49.506;10.400;2023-08-21T01:03:57;98592.13;;;27.29
64394;BMP280;50712;49.506;10.400;2023-08-21T01:04:30;98596.97;;;27.28
64394;BMP280;50712;49.506;10.400;2023-08-21T01:05:02;98589.34;;;27.29
64394;BMP280;50712;49.506;10.400;2023-08-21T01:05:33;98592.13;;;27.29
64394;BMP280;50712;49.506;10.400;2023-08-21T01:06:05;98594.19;;;27.28
64394;BMP280;50712;49.506;10.400;2023-08-21T01:06:36;98594.19;;;27.28
64394;BMP280;50712;49.506;10.400;2023-08-21T01:07:06;98589.34;;;27.29
64394;BMP280;50712;49.506;10.400;2023-08-21T01:07:50;98594.19;;;27.28
64394;BMP280;50712;49.506;10.400;2023-08-21T01:08:42;98590.66;;;27.28
64394;BMP280;50712;49.506;10.400;2023-08-21T01:09:22;98585.06;;;27.28
64394;BMP280;50712;49.506;10.400;2023-08-21T01:09:58;98587.09;;;27.27
64394;BMP280;50712;49.506;10.400;2023-08-21T01:13:47;98584.66;;;27.24
64394;BMP280;50712;49.506;10.400;2023-08-21T01:14:29;98586.69;;;27.23
64394;BMP280;50712;49.506;10.400;2023-08-21T01:15:06;98583.88;;;27.23
64394;BMP280;50712;49.506;10.400;2023-08-21T01:15:37;98582.41;;;27.22
64394;BMP280;50712;49.506;10.400;2023-08-21T01:16:09;98580.91;;;27.21
64394;BMP280;50712;49.506;10.400;2023-08-21T01:16:40;98586.50;;;27.21
64394;BMP280;50712;49.506;10.400;2023-08-21T01:17:12;98585.75;;;27.21
64394;BMP280;50712;49.506;10.400;2023-08-21T01:17:46;98587.03;;;27.19
64394;BMP280;50712;49.506;10.400;2023-08-21T01:18:18;98587.03;;;27.19
64394;BMP280;50712;49.506;10.400;2023-08-21T01:18:50;98577.19;;;27.19
64394;BMP280;50712;49.506;10.400;2023-08-21T01:19:29;98583.50;;;27.19
64394;BMP280;50712;49.506;10.400;2023-08-21T01:20:13;98581.25;;;27.17
64394;BMP280;50712;49.506;10.400;2023-08-21T01:20:44;98583.28;;;27.17
64394;BMP280;50712;49.506;10.400;2023-08-21T01:21:16;98575.66;;;27.17
64394;BMP280;50712;49.506;10.400;2023-08-21T01:21:47;98581.25;;;27.17
64394;BMP280;50712;49.506;10.400;2023-08-21T01:22:17;98583.28;;;27.17
64394;BMP280;50712;49.506;10.400;2023-08-21T01:22:48;98579.75;;;27.16
64394;BMP280;50712;49.506;10.400;2023-08-21T01:23:53;98582.53;;;27.16
64394;BMP280;50712;49.506;10.400;2023-08-21T01:24:19;98578.25;;;27.15
64394;BMP280;50712;49.506;10.400;2023-08-21T01:24:50;98576.22;;;27.16
64394;BMP280;50712;49.506;10.400;2023-08-21T01:25:20;98576.75;;;27.14
64394;BMP280;50712;49.506;10.400;2023-08-21T01:25:51;98580.31;;;27.15
64394;BMP280;50712;49.506;10.400;2023-08-21T01:26:21;98570.22;;;27.12
64394;BMP280;50712;49.506;10.400;2023-08-21T01:26:51;98579.91;;;27.11
64394;BMP280;50712;49.506;10.400;2023-08-21T01:27:22;98574.88;;;27.09
64394;BMP280;50712;49.506;10.400;2023-08-21T01:27:52;98576.19;;;27.08
64394;BMP280;50712;49.506;10.400;2023-08-21T01:28:23;98571.69;;;27.05
64394;BMP280;50712;49.506;10.400;2023-08-21T01:28:55;98571.44;;;27.03
64394;BMP280;50712;49.506;10.400;2023-08-21T01:29:25;98574.84;;;27.02
64394;BMP280;50712;49.506;10.400;2023-08-21T01:29:56;98577.97;;;26.98
64394;BMP280;50712;49.506;10.400;2023-08-21T01:30:27;98583.38;;;26.96
64394;BMP280;50712;49.506;10.400;2023-08-21T01:31:06;98583.16;;;26.94
64394;BMP280;50712;49.506;10.400;2023-08-21T01:31:41;98579.41;;;26.92
64394;BMP280;50712;49.506;10.400;2023-08-21T01:32:23;98584.84;;;26.90
64394;BMP280;50712;49.506;10.400;2023-08-21T01:33:06;98585.34;;;26.88
64394;BMP280;50712;49.506;10.400;2023-08-21T01:33:42;98575.47;;;26.87
64394;BMP280;50712;49.506;10.400;2023-08-21T01:34:16;98581.63;;;26.86
64394;BMP280;50712;49.506;10.400;2023-08-21T01:34:47;98583.66;;;26.85
64394;BMP280;50712;49.506;10.400;2023-08-21T01:35:21;98579.34;;;26.84
64394;BMP280;50712;49.506;10.400;2023-08-21T01:35:52;98578.06;;;26.85
64394;BMP280;50712;49.506;10.400;2023-08-21T01:36:23;98582.72;;;26.83
64394;BMP280;50712;49.506;10.400;2023-08-21T01:36:55;98597.47;;;26.83
64394;BMP280;50712;49.506;10.400;2023-08-21T01:37:26;98587.03;;;26.84
64394;BMP280;50712;49.506;10.400;2023-08-21T01:37:58;98581.44;;;26.84
64394;BMP280;50712;49.506;10.400;2023-08-21T01:38:32;98587.03;;;26.84
64394;BMP280;50712;49.506;10.400;2023-08-21T01:39:03;98582.72;;;26.83
64394;BMP280;50712;49.506;10.400;2023-08-21T01:39:34;98580.69;;;26.83
64394;BMP280;50712;49.506;10.400;2023-08-21T01:40:05;98580.69;;;26.83
64394;BMP280;50712;49.506;10.400;2023-08-21T01:40:36;98579.34;;;26.84
64394;BMP280;50712;49.506;10.400;2023-08-21T01:41:06;98582.16;;;26.84
64394;BMP280;50712;49.506;10.400;2023-08-21T01:41:37;98575.09;;;26.83
64394;BMP280;50712;49.506;10.400;2023-08-21T01:42:07;98583.47;;;26.83
64394;BMP280;50712;49.506;10.400;2023-08-21T01:42:37;98580.69;;;26.83
64394;BMP280;50712;49.506;10.400;2023-08-21T01:43:08;98588.50;;;26.85
64394;BMP280;50712;49.506;10.400;2023-08-21T01:43:38;98581.44;;;26.84
64394;BMP280;50712;49.506;10.400;2023-08-21T01:44:08;98587.03;;;26.84
64394;BMP280;50712;49.506;10.400;2023-08-21T01:44:39;98587.75;;;26.84
64394;BMP280;50712;49.506;10.400;2023-08-21T01:45:10;98587.75;;;26.84
64394;BMP280;50712;49.506;10.400;2023-08-21T01:45:40;98588.50;;;26.85
64394;BMP280;50712;49.506;10.400;2023-08-21T01:46:11;98584.94;;;26.84
64394;BMP280;50712;49.506;10.400;2023-08-21T01:46:42;98587.03;;;26.84
64394;BMP280;50712;49.506;10.400;2023-08-21T01:47:12;98593.34;;;26.84
64394;BMP280;50712;49.506;10.400;2023-08-21T01:47:43;98584.94;;;26.84
64394;BMP280;50712;49.506;10.400;2023-08-21T01:48:13;98584.25;;;26.84
64394;BMP280;50712;49.506;10.400;2023-08-21T01:48:44;98589.84;;;26.84
64394;BMP280;50712;49.506;10.400;2023-08-21T01:49:14;98584.94;;;26.84
64394;BMP280;50712;49.506;10.400;2023-08-21T01:49:44;98582.72;;;26.83
64394;BMP280;50712;49.506;10.400;2023-08-21T01:50:16;98597.47;;;26.83
64394;BMP280;50712;49.506;10.400;2023-08-21T01:50:47;98588.31;;;26.83
64394;BMP280;50712;49.506;10.400;2023-08-21T01:51:18;98591.13;;;26.83
64394;BMP280;50712;49.506;10.400;2023-08-21T01:51:48;98586.81;;;26.82
64394;BMP280;50712;49.506;10.400;2023-08-21T01:52:19;98581.97;;;26.82
64394;BMP280;50712;49.506;10.400;2023-08-21T01:52:49;98587.56;;;26.82
64394;BMP280;50712;49.506;10.400;2023-08-21T01:53:20;98586.03;;;26.81
64394;BMP280;50712;49.506;10.400;2023-08-21T01:53:50;98581.97;;;26.82
64394;BMP280;50712;49.506;10.400;2023-08-21T01:54:21;98594.44;;;26.81
64394;BMP280;50712;49.506;10.400;2023-08-21T01:54:51;98582.53;;;26.81
64394;BMP280;50712;49.506;10.400;2023-08-21T01:55:21;98592.22;;;26.80
64394;BMP280;50712;49.506;10.400;2023-08-21T01:55:53;98583.06;;;26.79
64394;BMP280;50712;49.506;10.400;2023-08-21T01:56:23;98588.66;;;26.79
64394;BMP280;50712;49.506;10.400;2023-08-21T01:56:53;98585.88;;;26.79
64394;BMP280;50712;49.506;10.400;2023-08-21T01:57:24;98586.63;;;26.80
64394;BMP280;50712;49.506;10.400;2023-08-21T01:57:54;98583.81;;;26.80
64394;BMP280;50712;49.506;10.400;2023-08-21T01:58:25;98582.31;;;26.79
64394;BMP280;50712;49.506;10.400;2023-08-21T01:58:55;98582.31;;;26.79
64394;BMP280;50712;49.506;10.400;2023-08-21T01:59:26;98585.09;;;26.79
64394;BMP280;50712;49.506;10.400;2023-08-21T01:59:56;98584.34;;;26.78
64394;BMP280;50712;49.506;10.400;2023-08-21T02:00:26;98591.28;;;26.77
64394;BMP280;50712;49.506;10.400;2023-08-21T02:00:57;98589.25;;;26.78
64394;BMP280;50712;49.506;10.400;2023-08-21T02:01:27;98594.06;;;26.77
64394;BMP280;50712;49.506;10.400;2023-08-21T02:01:59;98581.38;;;26.76
64394;BMP280;50712;49.506;10.400;2023-08-21T02:02:29;98589.00;;;26.76
64394;BMP280;50712;49.506;10.400;2023-08-21T02:03:00;98580.63;;;26.76
64394;BMP280;50712;49.506;10.400;2023-08-21T02:03:30;98574.25;;;26.75
64394;BMP280;50712;49.506;10.400;2023-08-21T02:04:01;98573.50;;;26.75
64394;BMP280;50712;49.506;10.400;2023-08-21T02:04:31;98579.84;;;26.75
64394;BMP280;50712;49.506;10.400;2023-08-21T02:05:03;98585.44;;;26.75
64394;BMP280;50712;49.506;10.400;2023-08-21T02:05:37;98572.81;;;26.74
64394;BMP280;50712;49.506;10.400;2023-08-21T02:06:09;98584.00;;;26.74
64394;BMP280;50712;49.506;10.400;2023-08-21T02:06:39;98575.59;;;26.74
64394;BMP280;50712;49.506;10.400;2023-08-21T02:07:11;98579.09;;;26.75
64394;BMP280;50712;49.506;10.400;2023-08-21T02:07:41;98576.88;;;26.73
64394;BMP280;50712;49.506;10.400;2023-08-21T02:08:13;98584.50;;;26.73
64394;BMP280;50712;49.506;10.400;2023-08-21T02:08:44;98576.13;;;26.73
64394;BMP280;50712;49.506;10.400;2023-08-21T02:09:15;98578.16;;;26.72
64394;BMP280;50712;49.506;10.400;2023-08-21T02:09:45;98574.59;;;26.72
64394;BMP280;50712;49.506;10.400;2023-08-21T02:10:15;98582.28;;;26.71
64394;BMP280;50712;49.506;10.400;2023-08-21T02:10:52;98573.16;;;26.71
64394;BMP280;50712;49.506;10.400;2023-08-21T02:11:22;98584.31;;;26.71
64394;BMP280;50712;49.506;10.400;2023-08-21T02:11:55;98586.38;;;26.70
64394;BMP280;50712;49.506;10.400;2023-08-21T02:12:25;98586.38;;;26.70
64394;BMP280;50712;49.506;10.400;2023-08-21T02:12:56;98588.41;;;26.70
64394;BMP280;50712;49.506;10.400;2023-08-21T02:13:26;98580.78;;;26.70
64394;BMP280;50712;49.506;10.400;2023-08-21T02:13:57;98588.41;;;26.70
64394;BMP280;50712;49.506;10.400;2023-08-21T02:14:27;98582.06;;;26.69
64394;BMP280;50712;49.506;10.400;2023-08-21T02:14:59;98584.84;;;26.69
64394;BMP280;50712;49.506;10.400;2023-08-21T02:15:29;98584.84;;;26.69
64394;BMP280;50712;49.506;10.400;2023-08-21T02:16:00;98586.88;;;26.69
64394;BMP280;50712;49.506;10.400;2023-08-21T02:16:30;98583.38;;;26.68
64394;BMP280;50712;49.506;10.400;2023-08-21T02:17:01;98581.88;;;26.67
64394;BMP280;50712;49.506;10.400;2023-08-21T02:17:32;98591.03;;;26.68
64394;BMP280;50712;49.506;10.400;2023-08-21T02:18:03;98583.91;;;26.67
64394;BMP280;50712;49.506;10.400;2023-08-21T02:18:33;98588.75;;;26.66
64394;BMP280;50712;49.506;10.400;2023-08-21T02:19:04;98578.84;;;26.65
64394;BMP280;50712;49.506;10.400;2023-08-21T02:19:34;98590.78;;;26.66
64394;BMP280;50712;49.506;10.400;2023-08-21T02:20:05;98582.22;;;26.64
64394;BMP280;50712;49.506;10.400;2023-08-21T02:20:35;98588.56;;;26.64
64394;BMP280;50712;49.506;10.400;2023-08-21T02:21:06;98585.00;;;26.64
64394;BMP280;50712;49.506;10.400;2023-08-21T02:21:36;98583.72;;;26.65
64394;BMP280;50712;49.506;10.400;2023-08-21T02:22:06;98580.69;;;26.63
64394;BMP280;50712;49.506;10.400;2023-08-21T02:22:37;98583.72;;;26.65
64394;BMP280;50712;49.506;10.400;2023-08-21T02:23:07;98584.25;;;26.63
64394;BMP280;50712;49.506;10.400;2023-08-21T02:23:37;98582.97;;;26.64
64394;BMP280;50712;49.506;10.400;2023-08-21T02:24:08;98585.00;;;26.64
64394;BMP280;50712;49.506;10.400;2023-08-21T02:24:38;98586.28;;;26.63
64394;BMP280;50712;49.506;10.400;2023-08-21T02:25:08;98584.25;;;26.63
64394;BMP280;50712;49.506;10.400;2023-08-21T02:25:40;98579.94;;;26.62
64394;BMP280;50712;49.506;10.400;2023-08-21T02:26:10;98587.03;;;26.63
64394;BMP280;50712;49.506;10.400;2023-08-21T02:26:43;98589.09;;;26.63
64394;BMP280;50712;49.506;10.400;2023-08-21T02:27:15;98583.50;;;26.63
64394;BMP280;50712;49.506;10.400;2023-08-21T02:27:46;98589.84;;;26.63
64394;BMP280;50712;49.506;10.400;2023-08-21T02:28:16;98590.59;;;26.64
64394;BMP280;50712;49.506;10.400;2023-08-21T02:28:46;98582.72;;;26.62
64394;BMP280;50712;49.506;10.400;2023-08-21T02:29:17;98588.31;;;26.62
64394;BMP280;50712;49.506;10.400;2023-08-21T02:29:47;98582.72;;;26.62
64394;BMP280;50712;49.506;10.400;2023-08-21T02:30:17;98587.63;;;26.62
64394;BMP280;50712;49.506;10.400;2023-08-21T02:30:50;98586.28;;;26.63
64394;BMP280;50712;49.506;10.400;2023-08-21T02:31:20;98590.41;;;26.62
64394;BMP280;50712;49.506;10.400;2023-08-21T02:31:51;98588.31;;;26.62
64394;BMP280;50712;49.506;10.400;2023-08-21T02:32:21;98584.81;;;26.62
64394;BMP280;50712;49.506;10.400;2023-08-21T02:32:52;98588.91;;;26.61
64394;BMP280;50712;49.506;10.400;2023-08-21T02:33:22;98590.41;;;26.62
64394;BMP280;50712;49.506;10.400;2023-08-21T02:33:53;98593.72;;;26.60
64394;BMP280;50712;49.506;10.400;2023-08-21T02:34:23;98585.91;;;26.59
64394;BMP280;50712;49.506;10.400;2023-08-21T02:34:53;98587.19;;;26.58
64394;BMP280;50712;49.506;10.400;2023-08-21T02:35:24;98592.22;;;26.59
64394;BMP280;50712;49.506;10.400;2023-08-21T02:35:54;98583.66;;;26.57
64394;BMP280;50712;49.506;10.400;2023-08-21T02:36:25;98588.47;;;26.57
64394;BMP280;50712;49.506;10.400;2023-08-21T02:36:55;98590.53;;;26.56
64394;BMP280;50712;49.506;10.400;2023-08-21T02:37:25;98596.09;;;26.56
64394;BMP280;50712;49.506;10.400;2023-08-21T02:37:56;98587.72;;;26.56
64394;BMP280;50712;49.506;10.400;2023-08-21T02:38:26;98592.59;;;26.56
64394;BMP280;50712;49.506;10.400;2023-08-21T02:38:56;98592.59;;;26.56
64394;BMP280;50712;49.506;10.400;2023-08-21T02:39:27;98590.34;;;26.54
64394;BMP280;50712;49.506;10.400;2023-08-21T02:39:58;98585.50;;;26.55
64394;BMP280;50712;49.506;10.400;2023-08-21T02:40:29;98597.44;;;26.55
64394;BMP280;50712;49.506;10.400;2023-08-21T02:41:00;98593.13;;;26.54
64394;BMP280;50712;49.506;10.400;2023-08-21T02:41:30;98591.09;;;26.55
64394;BMP280;50712;49.506;10.400;2023-08-21T02:42:00;98592.38;;;26.54
64394;BMP280;50712;49.506;10.400;2023-08-21T02:42:31;98592.38;;;26.54
64394;BMP280;50712;49.506;10.400;2023-08-21T02:43:01;98590.13;;;26.52
64394;BMP280;50712;49.506;10.400;2023-08-21T02:43:32;98581.75;;;26.52
64394;BMP280;50712;49.506;10.400;2023-08-21T02:44:02;98595.72;;;26.52
64394;BMP280;50712;49.506;10.400;2023-08-21T02:44:32;98591.94;;;26.50
64394;BMP280;50712;49.506;10.400;2023-08-21T02:45:03;98589.91;;;26.50
64394;BMP280;50712;49.506;10.400;2023-08-21T02:45:38;98592.72;;;26.50
64394;BMP280;50712;49.506;10.400;2023-08-21T02:46:08;98592.53;;;26.48
64394;BMP280;50712;49.506;10.400;2023-08-21T02:46:38;98591.78;;;26.48
64394;BMP280;50712;49.506;10.400;2023-08-21T02:47:09;98593.81;;;26.47
64394;BMP280;50712;49.506;10.400;2023-08-21T02:47:40;98588.22;;;26.47
64394;BMP280;50712;49.506;10.400;2023-08-21T02:48:11;98589.53;;;26.46
64394;BMP280;50712;49.506;10.400;2023-08-21T02:48:41;98589.53;;;26.46
64394;BMP280;50712;49.506;10.400;2023-08-21T02:49:11;98588.78;;;26.46
64394;BMP280;50712;49.506;10.400;2023-08-21T02:49:43;98590.06;;;26.45
64394;BMP280;50712;49.506;10.400;2023-08-21T02:50:13;98589.31;;;26.44
64394;BMP280;50712;49.506;10.400;2023-08-21T02:50:44;98590.06;;;26.45
64394;BMP280;50712;49.506;10.400;2023-08-21T02:51:14;98590.06;;;26.45
64394;BMP280;50712;49.506;10.400;2023-08-21T02:51:47;98593.63;;;26.45
64394;BMP280;50712;49.506;10.400;2023-08-21T02:52:18;98594.91;;;26.44
64394;BMP280;50712;49.506;10.400;2023-08-21T02:52:48;98586.50;;;26.44
64394;BMP280;50712;49.506;10.400;2023-08-21T02:53:18;98585.00;;;26.43
64394;BMP280;50712;49.506;10.400;2023-08-21T02:53:49;98585.00;;;26.43
64394;BMP280;50712;49.506;10.400;2023-08-21T02:54:19;98589.84;;;26.43
64394;BMP280;50712;49.506;10.400;2023-08-21T02:54:50;98591.16;;;26.42
64394;BMP280;50712;49.506;10.400;2023-08-21T02:55:20;98585.56;;;26.42
64394;BMP280;50712;49.506;10.400;2023-08-21T02:55:50;98589.66;;;26.41
64394;BMP280;50712;49.506;10.400;2023-08-21T02:56:21;98584.81;;;26.41
64394;BMP280;50712;49.506;10.400;2023-08-21T02:56:51;98590.94;;;26.40
64394;BMP280;50712;49.506;10.400;2023-08-21T02:57:22;98590.94;;;26.40
64394;BMP280;50712;49.506;10.400;2023-08-21T02:57:52;98589.47;;;26.39
64394;BMP280;50712;49.506;10.400;2023-08-21T02:58:23;98592.25;;;26.39
64394;BMP280;50712;49.506;10.400;2023-08-21T02:58:53;98591.50;;;26.38
64394;BMP280;50712;49.506;10.400;2023-08-21T02:59:24;98587.19;;;26.37
64394;BMP280;50712;49.506;10.400;2023-08-21T02:59:54;98589.97;;;26.37
64394;BMP280;50712;49.506;10.400;2023-08-21T03:00:25;98592.03;;;26.37
64394;BMP280;50712;49.506;10.400;2023-08-21T03:00:55;98589.81;;;26.35